Accueil
METAR-TAF:

METAR-TAF

Aéroports :

Chengdu, Chine

Aéroport international de Chengdu-Shuangliu

latitude: 30-40N, longitude: 104-01E, altitude: 508 m

Observation

Le bulletin a été fait il y a 1 heure et 8 minutes, à 07:00 UTC
Vent 4 kt de direction variable
Température 34°C
Humidité 28%
Pression 1012 hPa
Visibilité 10 km ou plus
Quelques nuages à une hauteur de 3000 ft

METAR: ZUUU 270700Z VRB02MPS 9999 FEW030 34/13 Q1012 NOSIG

Heure: 16:08 (08:08 UTC)

Prévision

Le bulletin a été fait il y a 5 heures et 52 minutes, à 02:16 UTC
Prévision valable du 27 à 06 UTC au 28 à 06 UTC
Vent 6 kt de sud/sud-ouest
Visibilité: 5000 m
Nuages épars à une hauteur de 5000 ft
brume

TAF: ZUUU 270216Z 2706/2806 20003MPS 5000 BR SCT050 TX33/2707Z TN20/2722Z

Observations et prévisions météorologiques de plus de 4000 aéroports (messages METAR et TAF).

Les stations disponibles sont représentées par des disques jaunes et rouges sur la carte.

Passer la souris dessus pour voir le nom de la station.

Cliquer dessus pour voir les observations et prévisions météorologiques.

Pour changer de carte: cliquez sur les boutons verts avec une croix noire pour zoomer, sur le bouton vert avec un tiret pour effectuer un zoom arrière, ou sur les flèches vertes pour les cartes adjacentes.


METAR-TAF: